Ronald Reagan Washington National Airport
KDCA : now visible

Airfield :











YOU CAN JOIN US ON...

 
LOGIN :

Register | Disclaimer

   EN    FR    IT 

 









Legend :    VFR   Marginal VFR   IFR   Intensive IFR   Very Intensive IFR
Visi :
Ceiling :
>= 8 km
>= 3000ft
5 to 8 km
1000 to 3000 ft
1500m to 5 km
500 to 1000 ft
800 to 1500m
200 to 500 ft
< 800m
< 200 ft
Symbols :   Thunderstorms  Fog  Heavy snow  Heavy precipitations  Wind > 20 kt






- Airport Elevation : 15 ft
- IATA code : DCA


KDCA - Ronald Reagan Washington National

CURRENT METAR :
  • 281825Z 10006KT 10SM OVC010 14/12 A2996 RMK AO2 T01390122

EXPIRED METARs :
  • 281806Z 10003KT 10SM OVC009 14/12 A2997 RMK AO2 T01390122
  • 281752Z 10003KT 10SM OVC010 14/12 A2998 RMK AO2 SLP152 60015 T01390122 10139 20122 58007
  • 281652Z 11005KT 10SM OVC010 13/12 A3000 RMK AO2 DZB17E38 SLP158 P0000 T01330117
  • 281638Z 10005KT 9SM OVC010 13/12 A2999 RMK AO2 DZB17E38 P0000 T01330117
  • 281618Z 10004KT 5SM -DZ BR OVC010 13/12 A3000 RMK AO2 DZB17 P0000 T01330117
  • 281552Z 16004KT 10SM OVC010 13/11 A2999 RMK AO2 SLP156 T01330111

TAF KDCA
Valid from the 28 at 18:00 until the 30 at 00:00 UTC


281734Z 2818/2924 11007KT P6SM OVC008
FM290300 07005KT 4SM BR OVC003
FM291300 10004KT 5SM BR BKN008
FM291500 14004KT P6SM BKN010
FM291800 18006KT P6SM BKN025
FM292100 22009KT P6SM BKN050



MET'MAP, your aeronautical weather chart ! - Copyright ORBIFLY December 2007 - Disclaimer

ORBIFLY MET'MAP TEAM :

Programming & Development : Alexandra Zaïnal
Concept & original design : Baudouin d'Aumeries
Assistance for programming : Marc-Olivier Méhu
Technical & hardware support : Manuel Goepfert

Contact : metmap@orbifly.com




SOURCES & CREDITS :

   NOAA       Earth
Advisory